Fugaku Maru — JH3428 — position and weather

sailwx.info

Track history (hours):
 
Tides and Currents Weather Stations Pressure Air Temp Water Temp Dewpoint Dewpoint Depression Visibility Wind Speed Wind Dir Waves Ship Positions

Fugaku Maru

Last reported at 2014-Sep-02 19:33 UTC. Time now 2014-Sep-03 07:25 UTC.
Position N 34°43' E 139°41'.

Length 165 m; draft 7.2 m.

Type: Cargo ship. MMSI: 431200176.

Date/timePositionNaut miles runAvg speedWind from/ knotsBaromVisibWave heightAir tempDewpointWater temp
2014-Sep-02 19:33N 34°43' E 139°41'1919.0
2014-Sep-02 18:32N 34°50' E 140°02'2219.1
2014-Sep-02 17:24N 35°01' E 140°25'2320.2
2014-Sep-02 16:15N 35°20' E 140°43'1420.8
2014-Sep-02 15:33N 35°32' E 140°53'  
2014-Aug-30 22:33N 35°30' E 140°50'2018.1
2014-Aug-30 21:25N 35°13' E 140°36'1618.7
2014-Aug-30 20:33N 35°01' E 140°23'1918.7
2014-Aug-30 19:34N 34°51' E 140°04'2020.1
2014-Aug-30 18:32N 34°42' E 139°41'16 0.7
2014-Aug-29 20:32N 34°37' E 139°23'1919.6
2014-Aug-29 19:33N 34°44' E 139°45'2020.2
2014-Aug-29 18:33N 34°53' E 140°07'2019.2
2014-Aug-29 17:32N 35°03' E 140°28'2020.7
2014-Aug-29 16:33N 35°19' E 140°42'2019.8
2014-Aug-29 15:33N 35°36' E 140°55'2020.0
2014-Aug-29 14:33N 35°56' E 140°60'  
2014-Aug-26 23:16N 35°37' E 140°56'1517.8
2014-Aug-26 22:27N 35°25' E 140°46'1718.3
2014-Aug-26 21:33N 35°11' E 140°35'2020.7
2014-Aug-26 20:33N 34°57' E 140°17'2020.2
2014-Aug-26 19:33N 34°47' E 139°55'27 1.2
2014-Aug-25 20:27N 34°37' E 139°24'1819.1
2014-Aug-25 19:32N 34°44' E 139°44'1919.4
2014-Aug-25 18:33N 34°52' E 140°05'2019.5
2014-Aug-25 17:33N 35°02' E 140°26'2319.8
2014-Aug-25 16:23N 35°20' E 140°43'1720.8
2014-Aug-25 15:34N 35°34' E 140°55'2120.4
2014-Aug-25 14:33N 35°54' E 141°01'  
Track history (hours):
 
Tides and Currents Weather Stations Pressure Air Temp Water Temp Dewpoint Dewpoint Depression Visibility Wind Speed Wind Dir Waves Ship Positions

Fugaku Maru

Last reported at 2014-Sep-02 19:33 UTC. Time now 2014-Sep-03 07:25 UTC.
Position N 34°43' E 139°41'.

Length 165 m; draft 7.2 m.

Type: Cargo ship. MMSI: 431200176.

Date/timePositionNaut miles runAvg speedWind from/ knotsBaromVisibWave heightAir tempDewpointWater temp
2014-Sep-02 19:33N 34°43' E 139°41'1919.0
2014-Sep-02 18:32N 34°50' E 140°02'2219.1
2014-Sep-02 17:24N 35°01' E 140°25'2320.2
2014-Sep-02 16:15N 35°20' E 140°43'1420.8
2014-Sep-02 15:33N 35°32' E 140°53'  
2014-Aug-30 22:33N 35°30' E 140°50'2018.1
2014-Aug-30 21:25N 35°13' E 140°36'1618.7
2014-Aug-30 20:33N 35°01' E 140°23'1918.7
2014-Aug-30 19:34N 34°51' E 140°04'2020.1
2014-Aug-30 18:32N 34°42' E 139°41'16 0.7
2014-Aug-29 20:32N 34°37' E 139°23'1919.6
2014-Aug-29 19:33N 34°44' E 139°45'2020.2
2014-Aug-29 18:33N 34°53' E 140°07'2019.2
2014-Aug-29 17:32N 35°03' E 140°28'2020.7
2014-Aug-29 16:33N 35°19' E 140°42'2019.8
2014-Aug-29 15:33N 35°36' E 140°55'2020.0
2014-Aug-29 14:33N 35°56' E 140°60'  
2014-Aug-26 23:16N 35°37' E 140°56'1517.8
2014-Aug-26 22:27N 35°25' E 140°46'1718.3
2014-Aug-26 21:33N 35°11' E 140°35'2020.7
2014-Aug-26 20:33N 34°57' E 140°17'2020.2
2014-Aug-26 19:33N 34°47' E 139°55'27 1.2
2014-Aug-25 20:27N 34°37' E 139°24'1819.1
2014-Aug-25 19:32N 34°44' E 139°44'1919.4
2014-Aug-25 18:33N 34°52' E 140°05'2019.5
2014-Aug-25 17:33N 35°02' E 140°26'2319.8
2014-Aug-25 16:23N 35°20' E 140°43'1720.8
2014-Aug-25 15:34N 35°34' E 140°55'2120.4
2014-Aug-25 14:33N 35°54' E 141°01'  

Dump ship's entire track history